Time;durP1;ratioP1;P1;durP2;ratioP2;P2;SDS_P1;SDS_P2;PMS_P1;PMS_P2;Temp;Humidity;BMP_temperature;BMP_pressure;BME280_temperature;BME280_humidity;BME280_pressure;Samples;Min_cycle;Max_cycle;Signal;HPM_P1;HPM_P2
2022/12/10 06:01:34;;;;;;;33.58;18.73;;;1.50;99.90;;;;;;5798504;23;20035;-72
2022/12/10 06:04:03;;;;;;;31.38;17.48;;;1.50;99.90;;;;;;4888359;29;20036;-74
2022/12/10 06:06:36;;;;;;;32.00;17.92;;;1.50;99.90;;;;;;4888850;29;20100;-72
2022/12/10 06:09:03;;;;;;;30.65;17.58;;;1.50;99.90;;;;;;4878536;29;20199;-75
2022/12/10 06:11:29;;;;;;;40.95;20.15;;;1.50;99.90;;;;;;4855062;29;20039;-75
2022/12/10 06:13:57;;;;;;;33.22;19.00;;;1.60;99.90;;;;;;4889299;29;20032;-73
2022/12/10 06:16:24;;;;;;;33.45;18.40;;;1.60;99.90;;;;;;4888532;29;20052;-75
2022/12/10 06:18:50;;;;;;;25.97;14.43;;;1.50;99.90;;;;;;4872399;29;20107;-76
2022/12/10 06:21:18;;;;;;;32.90;18.38;;;1.60;99.90;;;;;;4869330;29;20567;-74
2022/12/10 06:23:44;;;;;;;33.25;18.08;;;1.60;99.90;;;;;;4886106;29;20036;-74
2022/12/10 06:26:16;;;;;;;33.53;18.33;;;1.50;99.90;;;;;;4870354;29;20032;-73
2022/12/10 06:28:45;;;;;;;33.55;18.13;;;1.50;99.90;;;;;;4869129;29;20085;-74
2022/12/10 06:31:11;;;;;;;33.90;18.35;;;1.50;99.90;;;;;;4870515;29;20366;-73
2022/12/10 06:33:37;;;;;;;32.30;18.13;;;1.50;99.90;;;;;;4869385;29;20037;-74
2022/12/10 06:36:05;;;;;;;34.67;17.95;;;1.50;99.90;;;;;;4879306;29;20051;-73
2022/12/10 06:38:31;;;;;;;32.28;18.63;;;1.50;99.90;;;;;;4888416;29;20331;-74
2022/12/10 06:40:57;;;;;;;36.53;18.92;;;1.50;99.90;;;;;;4888457;29;20029;-74
2022/12/10 06:43:26;;;;;;;34.30;19.67;;;1.50;99.90;;;;;;4888233;29;20064;-74
2022/12/10 06:45:52;;;;;;;35.58;18.85;;;1.50;99.90;;;;;;4888283;29;20029;-75
2022/12/10 06:48:17;;;;;;;32.42;18.70;;;1.50;99.90;;;;;;4888372;29;20108;-74
2022/12/10 06:50:43;;;;;;;43.78;23.50;;;1.50;99.90;;;;;;4871446;29;20314;-74
2022/12/10 06:53:09;;;;;;;34.20;19.65;;;1.40;99.90;;;;;;4888205;29;20045;-74
2022/12/10 06:55:38;;;;;;;37.97;20.75;;;1.40;99.90;;;;;;4887925;29;20029;-73
2022/12/10 06:58:03;;;;;;;36.53;19.73;;;1.40;99.90;;;;;;4871705;29;20036;-73
2022/12/10 07:00:29;;;;;;;38.50;19.40;;;1.40;99.90;;;;;;4888097;29;20073;-74
2022/12/10 07:02:55;;;;;;;30.48;18.10;;;1.40;99.90;;;;;;4886585;29;20299;-74
2022/12/10 07:05:21;;;;;;;34.83;18.95;;;1.40;99.90;;;;;;4887983;29;20032;-74
2022/12/10 07:07:46;;;;;;;33.80;18.52;;;1.40;99.90;;;;;;4887861;29;20089;-73
2022/12/10 07:10:13;;;;;;;32.92;17.80;;;1.50;99.90;;;;;;4888353;29;20398;-74
2022/12/10 07:12:39;;;;;;;34.08;18.17;;;1.50;99.90;;;;;;4870803;29;20037;-75
2022/12/10 07:15:05;;;;;;;33.13;17.25;;;1.50;99.90;;;;;;4871595;29;20297;-74
2022/12/10 07:17:31;;;;;;;31.70;18.05;;;1.50;99.90;;;;;;4871220;29;20029;-73
2022/12/10 07:19:56;;;;;;;34.00;18.90;;;1.50;99.90;;;;;;4888122;29;20085;-74
2022/12/10 07:22:22;;;;;;;33.17;18.45;;;1.50;99.90;;;;;;4888105;29;20084;-74
2022/12/10 07:24:48;;;;;;;37.33;18.35;;;1.50;99.90;;;;;;4887679;29;20312;-76
2022/12/10 07:27:14;;;;;;;33.05;17.88;;;1.50;99.90;;;;;;4887967;29;20041;-73
2022/12/10 07:29:40;;;;;;;33.53;18.35;;;1.40;99.90;;;;;;4887788;29;20040;-74
2022/12/10 07:32:06;;;;;;;32.05;17.77;;;1.40;99.90;;;;;;4888037;29;20041;-73
2022/12/10 07:34:32;;;;;;;33.67;18.45;;;1.40;99.90;;;;;;4887487;29;20251;-76
2022/12/10 07:36:58;;;;;;;29.65;17.63;;;1.40;99.90;;;;;;4871283;29;20044;-73
2022/12/10 07:39:24;;;;;;;34.45;18.27;;;1.40;99.90;;;;;;4889364;29;20091;-77
2022/12/10 07:41:52;;;;;;;31.77;18.70;;;1.50;99.90;;;;;;4874672;29;20327;-76
2022/12/10 07:44:20;;;;;;;34.17;17.92;;;1.50;99.90;;;;;;4891663;29;20037;-76
2022/12/10 07:46:47;;;;;;;32.05;17.55;;;1.60;99.90;;;;;;4891364;29;20041;-76
2022/12/10 07:49:13;;;;;;;32.60;18.17;;;1.60;99.90;;;;;;4891428;29;20044;-74
2022/12/10 07:51:39;;;;;;;32.83;17.90;;;1.60;99.90;;;;;;4890892;29;20214;-73
2022/12/10 07:54:05;;;;;;;32.67;18.63;;;1.70;99.90;;;;;;4891458;29;20314;-73
2022/12/10 07:56:30;;;;;;;29.67;16.92;;;1.70;99.90;;;;;;4890832;29;20025;-73
2022/12/10 07:58:56;;;;;;;32.70;18.23;;;1.80;99.90;;;;;;4891679;29;20056;-74
2022/12/10 08:01:26;;;;;;;31.40;17.83;;;1.80;99.90;;;;;;4891013;29;20057;-76
2022/12/10 08:03:56;;;;;;;31.40;17.58;;;1.80;99.90;;;;;;4890893;29;20330;-74
2022/12/10 08:06:22;;;;;;;33.60;18.45;;;1.80;99.90;;;;;;4891720;29;20063;-74
2022/12/10 08:08:49;;;;;;;31.80;18.30;;;1.80;99.90;;;;;;4890747;29;20587;-73
2022/12/10 08:11:16;;;;;;;33.25;17.58;;;1.80;99.90;;;;;;4891506;29;20330;-74
2022/12/10 08:13:43;;;;;;;32.87;18.70;;;1.90;99.90;;;;;;4894225;29;20275;-73
2022/12/10 08:16:14;;;;;;;30.10;17.40;;;1.90;99.90;;;;;;4892561;29;20505;-74
2022/12/10 08:18:44;;;;;;;30.83;17.48;;;2.00;99.90;;;;;;4890944;29;20040;-74
2022/12/10 08:21:22;;;;;;;33.75;18.20;;;2.00;99.90;;;;;;4890793;29;20040;-73
2022/12/10 08:23:48;;;;;;;31.75;17.65;;;2.00;99.90;;;;;;4891019;29;20097;-73
2022/12/10 08:26:17;;;;;;;30.00;16.95;;;2.00;99.90;;;;;;4891343;29;20033;-74
2022/12/10 08:28:43;;;;;;;31.13;17.63;;;2.10;99.90;;;;;;4890671;29;20037;-75
2022/12/10 08:31:11;;;;;;;29.23;17.13;;;2.10;99.90;;;;;;4890821;29;20033;-74
2022/12/10 08:33:37;;;;;;;28.50;17.10;;;2.10;99.90;;;;;;4890458;29;20052;-75
2022/12/10 08:36:08;;;;;;;29.92;17.52;;;2.20;99.90;;;;;;4890862;29;20140;-75
2022/12/10 08:38:34;;;;;;;33.92;18.02;;;2.20;99.90;;;;;;4890086;29;20037;-74
2022/12/10 08:41:09;;;;;;;30.33;17.42;;;2.20;99.90;;;;;;4874159;29;20056;-75
2022/12/10 08:43:36;;;;;;;28.95;16.80;;;2.20;99.90;;;;;;4890039;29;20068;-75
2022/12/10 08:46:02;;;;;;;29.08;16.90;;;2.20;99.90;;;;;;4890589;29;20037;-75
2022/12/10 08:48:28;;;;;;;30.38;17.63;;;2.30;99.90;;;;;;4890985;29;20024;-74
2022/12/10 08:50:54;;;;;;;30.40;17.95;;;2.40;99.90;;;;;;4889269;29;20033;-74
2022/12/10 08:53:21;;;;;;;28.55;17.20;;;2.50;99.90;;;;;;4890767;29;20052;-74
2022/12/10 08:55:53;;;;;;;33.67;18.63;;;2.50;99.90;;;;;;4889797;29;20043;-74
2022/12/10 08:58:19;;;;;;;30.90;17.88;;;2.60;99.90;;;;;;4890085;29;20043;-75
2022/12/10 09:00:45;;;;;;;30.90;18.33;;;2.50;99.90;;;;;;4889972;29;20338;-73
2022/12/10 09:03:11;;;;;;;30.75;17.30;;;2.50;99.90;;;;;;4889930;29;20224;-75
2022/12/10 09:05:37;;;;;;;30.33;17.08;;;2.50;99.90;;;;;;4889662;29;20254;-76
2022/12/10 09:08:03;;;;;;;31.27;17.63;;;2.50;99.90;;;;;;4890338;29;20052;-73
2022/12/10 09:10:29;;;;;;;28.42;17.55;;;2.60;99.90;;;;;;4890002;29;20033;-75
2022/12/10 09:12:55;;;;;;;28.77;17.20;;;2.70;99.90;;;;;;4889533;29;20089;-73
2022/12/10 09:15:20;;;;;;;31.75;17.88;;;2.70;99.90;;;;;;4873690;29;20036;-74
2022/12/10 09:17:46;;;;;;;27.17;16.05;;;2.70;99.90;;;;;;4889655;29;20209;-73
2022/12/10 09:20:12;;;;;;;31.55;17.42;;;2.70;99.90;;;;;;4890156;29;20140;-75
2022/12/10 09:22:38;;;;;;;30.02;17.27;;;2.70;99.90;;;;;;4872987;29;20056;-73
2022/12/10 09:25:14;;;;;;;34.88;17.15;;;2.90;99.90;;;;;;4889814;29;20036;-73
2022/12/10 09:27:41;;;;;;;33.42;17.90;;;2.90;99.90;;;;;;4889680;29;20025;-74
2022/12/10 09:30:08;;;;;;;30.67;17.48;;;3.00;99.90;;;;;;4889799;29;20044;-75
2022/12/10 09:32:34;;;;;;;30.75;16.90;;;3.00;99.90;;;;;;4889227;29;20142;-74
2022/12/10 09:34:59;;;;;;;29.20;17.08;;;3.10;99.90;;;;;;4889736;29;20219;-74
2022/12/10 09:37:25;;;;;;;28.98;16.90;;;3.20;99.90;;;;;;4889714;29;20256;-75
2022/12/10 09:39:51;;;;;;;30.67;17.02;;;3.10;99.90;;;;;;4889035;29;20163;-75
2022/12/10 09:42:39;;;;;;;28.67;15.95;;;3.00;99.90;;;;;;4889538;29;20028;-76
2022/12/10 09:45:32;;;;;;;29.50;17.33;;;2.90;99.90;;;;;;4889377;29;20096;-75
2022/12/10 09:48:04;;;;;;;29.98;16.60;;;2.90;99.90;;;;;;4872581;29;20116;-75
2022/12/10 09:50:38;;;;;;;31.17;17.20;;;2.90;99.90;;;;;;4890107;29;20068;-76
2022/12/10 09:53:12;;;;;;;27.20;16.08;;;2.90;99.90;;;;;;4889576;29;20040;-75
2022/12/10 09:55:45;;;;;;;28.52;16.35;;;2.80;99.90;;;;;;4889595;29;20033;-76
2022/12/10 09:58:19;;;;;;;32.58;16.92;;;2.90;99.90;;;;;;4890629;29;20037;-75
2022/12/10 10:00:47;;;;;;;29.00;17.02;;;3.00;99.90;;;;;;4895513;29;20218;-76
2022/12/10 10:03:15;;;;;;;29.20;17.50;;;3.00;99.90;;;;;;4898372;29;20053;-73
2022/12/10 10:05:46;;;;;;;29.42;16.67;;;3.00;99.90;;;;;;4899351;29;20036;-76
2022/12/10 10:08:21;;;;;;;29.33;17.60;;;3.10;99.90;;;;;;4889789;29;20029;-77
2022/12/10 10:10:50;;;;;;;31.05;17.83;;;3.10;99.90;;;;;;4887846;29;20043;-74
2022/12/10 10:13:33;;;;;;;30.52;17.60;;;3.10;99.90;;;;;;4889102;29;20083;-75
2022/12/10 10:16:18;;;;;;;28.67;16.25;;;3.10;99.90;;;;;;4871862;29;20231;-76
2022/12/10 10:18:50;;;;;;;31.55;17.67;;;3.10;99.90;;;;;;4888428;29;20039;-74
2022/12/10 10:21:25;;;;;;;28.90;17.15;;;3.10;99.90;;;;;;4889361;29;20075;-77
2022/12/10 10:23:51;;;;;;;28.67;16.58;;;3.10;99.90;;;;;;4888642;29;20037;-76
2022/12/10 10:26:17;;;;;;;30.58;17.08;;;3.10;99.90;;;;;;4873254;29;20080;-75
2022/12/10 10:28:45;;;;;;;29.95;17.10;;;3.20;99.90;;;;;;4888823;29;20099;-74
2022/12/10 10:31:23;;;;;;;32.83;17.77;;;3.20;99.90;;;;;;4887928;29;20041;-74
2022/12/10 10:34:15;;;;;;;30.77;17.38;;;3.30;99.90;;;;;;4887750;29;20052;-75
2022/12/10 10:36:45;;;;;;;30.85;16.88;;;3.20;99.90;;;;;;4864191;29;20161;-76
2022/12/10 10:39:21;;;;;;;29.48;16.95;;;3.30;99.90;;;;;;4888619;29;20358;-75
2022/12/10 10:41:52;;;;;;;30.20;16.95;;;3.30;99.90;;;;;;4888328;29;20104;-75
2022/12/10 10:44:21;;;;;;;33.45;17.83;;;3.30;99.90;;;;;;4888414;29;20029;-75
2022/12/10 10:46:51;;;;;;;29.52;17.23;;;3.30;99.90;;;;;;4871517;29;20029;-75
2022/12/10 10:49:23;;;;;;;26.98;15.93;;;3.30;99.90;;;;;;4888835;29;20052;-77
2022/12/10 10:51:50;;;;;;;26.60;15.55;;;3.30;99.90;;;;;;4871293;29;20093;-77
2022/12/10 10:54:39;;;;;;;27.92;15.90;;;3.30;99.90;;;;;;4888918;29;20262;-74
2022/12/10 10:57:23;;;;;;;30.80;17.83;;;3.30;99.90;;;;;;4871836;29;20371;-75
2022/12/10 10:59:52;;;;;;;30.20;17.02;;;3.40;99.90;;;;;;4888397;29;20111;-75
2022/12/10 11:02:28;;;;;;;29.42;17.55;;;3.40;99.90;;;;;;4888118;29;20101;-75
2022/12/10 11:05:08;;;;;;;29.52;17.08;;;3.40;99.90;;;;;;4887933;29;20060;-76
2022/12/10 11:07:39;;;;;;;28.75;17.05;;;3.40;99.90;;;;;;4888305;29;20044;-78
2022/12/10 11:10:23;;;;;;;31.17;17.60;;;3.40;99.90;;;;;;4872573;29;20041;-75
2022/12/10 11:13:19;;;;;;;28.77;16.25;;;3.30;99.90;;;;;;4888002;29;20085;-76
2022/12/10 11:16:09;;;;;;;28.83;16.92;;;3.30;99.90;;;;;;4871356;29;20223;-76
2022/12/10 11:18:38;;;;;;;27.45;16.38;;;3.40;99.90;;;;;;4856400;29;20215;-76
2022/12/10 11:21:12;;;;;;;30.15;17.17;;;3.40;99.90;;;;;;4888178;29;20252;-75
2022/12/10 11:23:41;;;;;;;27.60;16.35;;;3.40;99.90;;;;;;4888819;29;20025;-76
2022/12/10 11:26:24;;;;;;;27.88;16.55;;;3.40;99.90;;;;;;4888655;29;20089;-75
2022/12/10 11:28:55;;;;;;;31.42;17.05;;;3.50;99.90;;;;;;4871050;29;20029;-74
2022/12/10 11:31:36;;;;;;;26.70;16.08;;;3.50;99.90;;;;;;4888517;29;20212;-76
2022/12/10 11:34:26;;;;;;;30.00;16.45;;;3.60;99.90;;;;;;4871368;29;20319;-77
2022/12/10 11:37:16;;;;;;;27.35;15.88;;;3.60;99.90;;;;;;4871387;29;20064;-75
2022/12/10 11:39:42;;;;;;;26.85;15.10;;;3.50;99.90;;;;;;4871203;29;20045;-76
2022/12/10 11:42:18;;;;;;;30.30;16.52;;;3.50;99.90;;;;;;4880026;29;20389;-76
2022/12/10 11:44:55;;;;;;;26.73;15.25;;;3.60;99.90;;;;;;4886979;29;20048;-76
2022/12/10 11:47:24;;;;;;;26.80;15.25;;;3.60;99.90;;;;;;4888611;29;20100;-76
2022/12/10 11:50:09;;;;;;;27.95;15.13;;;3.60;99.90;;;;;;4870323;29;20048;-75
2022/12/10 11:52:51;;;;;;;26.10;15.70;;;3.70;99.90;;;;;;4887069;29;20139;-76
2022/12/10 11:55:25;;;;;;;25.92;15.38;;;3.60;99.90;;;;;;4887762;29;20040;-77
2022/12/10 11:58:11;;;;;;;24.55;15.60;;;3.60;99.90;;;;;;4870308;29;20053;-77
2022/12/10 12:00:55;;;;;;;28.70;16.63;;;3.60;99.90;;;;;;4887291;29;20052;-76
2022/12/10 12:03:35;;;;;;;27.20;15.23;;;3.60;99.90;;;;;;4870833;29;20121;-74
2022/12/10 12:06:16;;;;;;;24.13;14.95;;;3.70;99.90;;;;;;4870224;29;20063;-74
2022/12/10 12:09:00;;;;;;;29.73;16.65;;;3.80;99.90;;;;;;4887311;29;20040;-75
2022/12/10 12:11:29;;;;;;;28.48;16.75;;;3.90;99.90;;;;;;4887335;29;20037;-75
2022/12/10 12:14:04;;;;;;;27.10;15.05;;;3.90;99.90;;;;;;4886569;29;20047;-76
2022/12/10 12:16:39;;;;;;;26.45;14.98;;;3.90;99.90;;;;;;4869326;29;20052;-76
2022/12/10 12:19:12;;;;;;;27.95;16.15;;;3.90;99.90;;;;;;4868317;29;20038;-75
2022/12/10 12:21:40;;;;;;;26.85;15.90;;;4.10;99.90;;;;;;4868797;29;20038;-76
2022/12/10 12:24:26;;;;;;;24.17;14.93;;;4.20;99.90;;;;;;4851643;29;20211;-76
2022/12/10 12:27:02;;;;;;;27.23;16.02;;;4.20;99.90;;;;;;4869740;29;20203;-77
2022/12/10 12:29:36;;;;;;;27.45;15.35;;;4.20;99.90;;;;;;4871776;29;20037;-76
2022/12/10 12:32:24;;;;;;;26.58;15.13;;;4.20;99.90;;;;;;4854342;29;20217;-75
2022/12/10 12:35:02;;;;;;;24.58;14.27;;;4.40;99.90;;;;;;4871167;29;20026;-75
2022/12/10 12:37:38;;;;;;;26.42;15.45;;;4.40;99.90;;;;;;4871907;29;20040;-78
2022/12/10 12:40:23;;;;;;;25.77;14.18;;;4.30;99.90;;;;;;4870842;29;20431;-78
2022/12/10 12:43:08;;;;;;;23.55;13.88;;;4.30;99.90;;;;;;4873067;29;20256;-76
2022/12/10 12:45:38;;;;;;;23.15;14.82;;;4.30;99.90;;;;;;4889787;29;20078;-77
2022/12/10 12:48:34;;;;;;;21.17;13.45;;;4.40;99.90;;;;;;4889405;29;20111;-78
2022/12/10 12:51:13;;;;;;;23.52;12.45;;;4.40;99.90;;;;;;4889793;29;20037;-74
2022/12/10 12:53:39;;;;;;;21.40;13.20;;;4.40;99.90;;;;;;4890306;29;20045;-76
2022/12/10 12:56:14;;;;;;;21.98;13.25;;;4.30;99.90;;;;;;4889573;29;20093;-76
2022/12/10 12:59:00;;;;;;;22.23;13.52;;;4.40;99.90;;;;;;4871786;29;20045;-76
2022/12/10 13:01:43;;;;;;;22.33;12.82;;;4.30;99.90;;;;;;4872589;29;20119;-75
2022/12/10 13:04:10;;;;;;;22.65;12.98;;;4.40;99.90;;;;;;4854468;29;20041;-77
2022/12/10 13:06:38;;;;;;;20.63;12.38;;;4.30;99.90;;;;;;4870205;29;20046;-75
2022/12/10 13:09:42;;;;;;;21.70;12.98;;;4.20;99.90;;;;;;4870398;29;20220;-77
2022/12/10 13:12:14;;;;;;;21.02;12.73;;;4.10;99.90;;;;;;4831437;29;20054;-73
2022/12/10 13:14:48;;;;;;;20.55;11.80;;;4.00;99.90;;;;;;4831784;29;20204;-75
2022/12/10 13:17:38;;;;;;;19.80;11.60;;;3.90;99.90;;;;;;4831870;29;20102;-76
2022/12/10 13:20:31;;;;;;;20.92;13.10;;;3.80;99.90;;;;;;4816487;29;20381;-78
2022/12/10 13:23:25;;;;;;;21.02;13.15;;;3.70;99.90;;;;;;4816688;29;20084;-75
2022/12/10 13:25:55;;;;;;;21.80;12.40;;;3.80;99.90;;;;;;4832405;29;20038;-77
2022/12/10 13:28:41;;;;;;;23.95;13.73;;;3.80;99.90;;;;;;4832262;29;20046;-74
2022/12/10 13:31:15;;;;;;;21.80;12.07;;;3.70;99.90;;;;;;4832088;29;20292;-76
2022/12/10 13:33:50;;;;;;;23.10;13.23;;;3.60;99.90;;;;;;4832237;29;20054;-77
2022/12/10 13:36:45;;;;;;;24.65;13.65;;;3.60;99.90;;;;;;4816544;29;20144;-77
2022/12/10 13:39:22;;;;;;;31.48;17.42;;;3.50;99.90;;;;;;4823088;29;20161;-73
2022/12/10 13:45:03;;;;;;;22.00;12.75;;;3.30;99.90;;;;;;4815980;29;20050;-74
2022/12/10 13:47:45;;;;;;;25.15;14.68;;;3.30;99.90;;;;;;4836248;29;20277;-72
2022/12/10 13:50:38;;;;;;;25.13;14.80;;;3.20;99.90;;;;;;4869640;29;20045;-73
2022/12/10 13:53:36;;;;;;;30.17;15.93;;;3.10;99.90;;;;;;4853089;29;20040;-72
2022/12/10 13:56:11;;;;;;;;;;;3.00;99.90;;;;;;4813242;29;20050;-73
2022/12/10 13:59:19;;;;;;;29.17;15.65;;;2.80;99.90;;;;;;4812883;29;19909;-71
2022/12/10 14:01:44;;;;;;;;;;;2.70;99.90;;;;;;4813226;29;20166;-72
2022/12/10 14:04:29;;;;;;;30.85;16.27;;;2.60;99.90;;;;;;4812614;29;19913;-72
2022/12/10 14:06:55;;;;;;;30.30;17.70;;;2.60;99.90;;;;;;4809958;29;20353;-73
2022/12/10 14:09:34;;;;;;;29.42;16.13;;;2.50;99.90;;;;;;4813128;29;20336;-72
2022/12/10 14:12:13;;;;;;;32.03;17.38;;;2.50;99.90;;;;;;4806659;29;20055;-71
2022/12/10 14:14:45;;;;;;;34.97;17.98;;;2.50;99.90;;;;;;4794802;30;20114;-72
2022/12/10 14:17:18;;;;;;;35.00;18.17;;;2.40;99.90;;;;;;4794338;30;20310;-72
2022/12/10 14:19:48;;;;;;;30.00;17.02;;;2.40;99.90;;;;;;4794839;30;20124;-72
2022/12/10 14:22:23;;;;;;;33.33;17.65;;;2.40;99.90;;;;;;4794425;30;20389;-72
2022/12/10 14:24:50;;;;;;;30.83;17.90;;;2.40;99.90;;;;;;4794476;30;20065;-73
2022/12/10 14:27:19;;;;;;;30.35;17.02;;;2.40;99.90;;;;;;4794411;30;20160;-73
2022/12/10 14:29:47;;;;;;;33.30;17.65;;;2.40;99.90;;;;;;4794556;30;20078;-73
2022/12/10 14:32:16;;;;;;;30.55;15.85;;;2.30;99.90;;;;;;4850771;29;20116;-73
2022/12/10 14:34:46;;;;;;;29.92;16.25;;;2.30;99.90;;;;;;4869220;29;20041;-71
2022/12/10 14:37:14;;;;;;;28.63;15.95;;;2.20;99.90;;;;;;4868950;29;20355;-73
2022/12/10 14:39:40;;;;;;;29.67;16.13;;;2.20;99.90;;;;;;4852813;29;20095;-73
2022/12/10 14:42:12;;;;;;;31.40;17.00;;;2.20;99.90;;;;;;4850391;29;20037;-72
2022/12/10 14:44:39;;;;;;;31.38;17.20;;;2.20;99.90;;;;;;4870084;29;20030;-72
2022/12/10 14:47:12;;;;;;;31.63;16.58;;;2.10;99.90;;;;;;4869560;29;20271;-73
2022/12/10 14:49:45;;;;;;;30.73;15.35;;;2.10;99.90;;;;;;4870070;29;20029;-73
2022/12/10 14:52:32;;;;;;;29.85;15.90;;;2.20;99.90;;;;;;4852768;29;20041;-72
2022/12/10 14:54:58;;;;;;;33.07;17.10;;;2.20;99.90;;;;;;4853093;29;20109;-73
2022/12/10 14:57:32;;;;;;;31.65;16.52;;;2.10;99.90;;;;;;4869472;29;20779;-73
2022/12/10 15:00:16;;;;;;;33.83;16.95;;;2.10;99.90;;;;;;4867599;29;20389;-74
2022/12/10 15:03:08;;;;;;;30.20;16.02;;;2.00;99.90;;;;;;4842760;29;20049;-77
2022/12/10 15:05:35;;;;;;;33.05;16.27;;;2.00;99.90;;;;;;4850596;29;20110;-76
2022/12/10 15:08:03;;;;;;;29.27;15.20;;;2.00;99.90;;;;;;4850125;29;20235;-76
2022/12/10 15:10:36;;;;;;;30.30;16.77;;;1.90;99.90;;;;;;4834448;29;20042;-72
2022/12/10 15:13:06;;;;;;;31.13;16.67;;;2.00;99.90;;;;;;4833900;29;20270;-76
2022/12/10 15:15:37;;;;;;;30.95;16.83;;;2.00;99.90;;;;;;4850332;29;20030;-76
2022/12/10 15:18:06;;;;;;;30.42;17.10;;;2.00;99.90;;;;;;4850039;29;20098;-76
2022/12/10 15:20:47;;;;;;;29.08;15.45;;;1.90;99.90;;;;;;4850373;29;20109;-76
2022/12/10 15:23:28;;;;;;;30.02;16.80;;;1.90;99.90;;;;;;4849727;29;20042;-75
2022/12/10 15:25:56;;;;;;;29.00;15.93;;;1.80;99.90;;;;;;4833710;29;20062;-75
2022/12/10 15:28:35;;;;;;;28.35;15.52;;;1.80;99.90;;;;;;4833810;29;20058;-73
2022/12/10 15:31:19;;;;;;;32.90;16.98;;;1.80;99.90;;;;;;4849575;29;20045;-75
2022/12/10 15:33:47;;;;;;;29.60;16.08;;;1.80;99.90;;;;;;4850172;29;20287;-75
2022/12/10 15:36:24;;;;;;;;;;;1.80;99.90;;;;;;4818483;29;20116;-75
2022/12/10 15:38:50;;;;;;;27.90;14.13;;;1.70;99.90;;;;;;4851452;29;20198;-75
2022/12/10 15:41:23;;;;;;;29.58;15.52;;;1.70;99.90;;;;;;4850504;29;20030;-75
2022/12/10 15:43:59;;;;;;;30.88;16.52;;;1.70;99.90;;;;;;4850070;29;20049;-75
2022/12/10 15:46:24;;;;;;;31.33;15.85;;;1.70;99.90;;;;;;4850557;29;20030;-75
2022/12/10 15:48:53;;;;;;;29.80;16.25;;;1.70;99.90;;;;;;4833968;29;20299;-77
2022/12/10 15:51:19;;;;;;;32.28;17.30;;;1.70;99.90;;;;;;4849938;29;20038;-76
2022/12/10 15:53:45;;;;;;;29.38;16.10;;;1.60;99.90;;;;;;4833645;29;20518;-74
2022/12/10 15:56:11;;;;;;;28.70;14.95;;;1.60;99.90;;;;;;4849719;29;20265;-76
2022/12/10 15:58:37;;;;;;;29.60;16.25;;;1.50;99.90;;;;;;4817145;29;20034;-75
2022/12/10 16:01:03;;;;;;;29.20;15.50;;;1.50;99.90;;;;;;4834077;29;20075;-75
2022/12/10 16:03:29;;;;;;;28.60;14.55;;;1.50;99.90;;;;;;4852135;29;20049;-74
2022/12/10 16:05:55;;;;;;;27.35;14.82;;;1.50;99.90;;;;;;4835656;29;20026;-77
2022/12/10 16:08:28;;;;;;;29.40;15.13;;;1.50;99.90;;;;;;4852331;29;20269;-77
2022/12/10 16:10:57;;;;;;;29.17;15.65;;;1.40;99.90;;;;;;4852014;29;20312;-74
2022/12/10 16:13:27;;;;;;;30.20;15.68;;;1.40;99.90;;;;;;4852218;29;20042;-74
2022/12/10 16:16:05;;;;;;;27.05;14.45;;;1.40;99.90;;;;;;4861877;29;20041;-76
2022/12/10 16:18:31;;;;;;;27.80;14.13;;;1.40;99.90;;;;;;4871964;29;20180;-75
2022/12/10 16:20:57;;;;;;;27.60;14.60;;;1.30;99.90;;;;;;4871375;29;20065;-76
2022/12/10 16:23:23;;;;;;;27.60;14.07;;;1.20;99.90;;;;;;4870935;29;20041;-75
2022/12/10 16:25:49;;;;;;;26.60;14.50;;;1.30;99.90;;;;;;4871302;29;20067;-76
2022/12/10 16:28:19;;;;;;;27.17;15.50;;;1.20;99.90;;;;;;4853867;29;20048;-74
2022/12/10 16:30:48;;;;;;;26.95;14.45;;;1.20;99.90;;;;;;4854027;29;20040;-74
2022/12/10 16:33:17;;;;;;;26.48;14.00;;;1.20;99.90;;;;;;4869986;29;20240;-75
2022/12/10 16:35:43;;;;;;;23.23;12.82;;;1.20;99.90;;;;;;4870717;29;20054;-75
2022/12/10 16:38:09;;;;;;;26.45;14.95;;;1.20;99.90;;;;;;4853373;29;20033;-74
2022/12/10 16:40:38;;;;;;;25.70;13.93;;;1.20;99.90;;;;;;4870565;29;20049;-73
2022/12/10 16:43:04;;;;;;;;;;;1.10;99.90;;;;;;4870755;29;20341;-74
2022/12/10 16:45:36;;;;;;;26.02;13.55;;;1.20;99.90;;;;;;4870895;29;20031;-74
2022/12/10 16:48:03;;;;;;;26.30;14.52;;;1.20;99.90;;;;;;4870542;29;20048;-74
2022/12/10 16:50:29;;;;;;;28.23;14.38;;;1.30;99.90;;;;;;4870484;29;20124;-74
2022/12/10 16:52:56;;;;;;;26.75;14.20;;;1.30;99.90;;;;;;4869708;29;20061;-73
2022/12/10 16:55:25;;;;;;;25.38;13.95;;;1.40;99.90;;;;;;4871347;29;20097;-75
2022/12/10 16:57:51;;;;;;;;;;;1.40;99.90;;;;;;4870397;29;20048;-74
2022/12/10 17:00:22;;;;;;;29.02;14.55;;;1.40;99.90;;;;;;4838348;29;19908;-73
2022/12/10 17:02:50;;;;;;;27.42;15.60;;;1.40;99.90;;;;;;4802326;29;1096578;-76
2022/12/10 17:05:24;;;;;;;27.65;14.52;;;1.40;99.90;;;;;;4870995;29;20171;-74
2022/12/10 17:07:49;;;;;;;27.58;14.82;;;1.40;99.90;;;;;;4871180;29;20029;-72
2022/12/10 17:10:15;;;;;;;28.77;14.90;;;1.40;99.90;;;;;;4853420;29;20067;-74
2022/12/10 17:12:47;;;;;;;29.30;15.15;;;1.30;99.90;;;;;;4838819;29;20041;-74
2022/12/10 17:15:15;;;;;;;26.92;15.20;;;1.30;99.90;;;;;;4864693;29;20026;-73
2022/12/10 17:17:41;;;;;;;30.10;16.00;;;1.20;99.90;;;;;;4851757;29;20044;-75
2022/12/10 17:20:18;;;;;;;29.92;15.35;;;1.20;99.90;;;;;;4851209;29;20034;-73
2022/12/10 17:22:44;;;;;;;25.43;14.33;;;1.20;99.90;;;;;;4835613;29;20046;-74
2022/12/10 17:25:10;;;;;;;27.17;14.90;;;1.20;99.90;;;;;;4851192;29;20026;-76
2022/12/10 17:27:36;;;;;;;29.05;15.23;;;1.30;99.90;;;;;;4851793;29;20030;-74
2022/12/10 17:30:02;;;;;;;26.98;14.10;;;1.20;99.90;;;;;;4851231;29;20029;-73
2022/12/10 17:32:29;;;;;;;27.50;14.20;;;1.10;99.90;;;;;;4851565;29;20038;-74
2022/12/10 17:34:56;;;;;;;28.10;14.52;;;1.10;99.90;;;;;;4851522;29;20025;-74
2022/12/10 17:37:23;;;;;;;26.63;14.50;;;1.10;99.90;;;;;;4851760;29;20026;-74
2022/12/10 17:39:49;;;;;;;25.63;14.45;;;1.00;99.90;;;;;;4866260;29;20254;-75
2022/12/10 17:42:14;;;;;;;27.73;15.80;;;1.10;99.90;;;;;;4850917;29;20030;-72
2022/12/10 17:44:40;;;;;;;28.70;14.93;;;1.00;99.90;;;;;;4851521;29;20363;-76
2022/12/10 17:47:18;;;;;;;30.63;15.82;;;1.20;99.90;;;;;;4850888;29;20216;-74
2022/12/10 17:49:44;;;;;;;;;;;1.20;99.90;;;;;;4851879;29;20048;-73
2022/12/10 17:52:10;;;;;;;26.35;13.85;;;1.20;99.90;;;;;;4851045;29;20156;-73
2022/12/10 17:54:35;;;;;;;29.15;15.60;;;1.20;99.90;;;;;;4851305;29;20038;-72
2022/12/10 17:57:01;;;;;;;27.40;14.82;;;1.10;99.90;;;;;;4855900;29;20077;-71
2022/12/10 17:59:27;;;;;;;25.88;15.57;;;1.10;99.90;;;;;;4853420;29;20041;-73
2022/12/10 18:01:53;;;;;;;32.63;16.58;;;1.10;99.90;;;;;;4849626;29;20341;-76
2022/12/10 18:04:19;;;;;;;30.50;16.27;;;1.10;99.90;;;;;;4850642;29;20041;-75
2022/12/10 18:06:44;;;;;;;27.17;15.95;;;1.10;99.90;;;;;;4834638;29;20037;-75
2022/12/10 18:09:11;;;;;;;30.50;16.30;;;1.10;99.90;;;;;;4850689;29;20033;-73
2022/12/10 18:11:40;;;;;;;28.95;15.57;;;1.00;99.90;;;;;;4851080;29;20100;-73
2022/12/10 18:14:06;;;;;;;29.50;15.98;;;1.00;99.90;;;;;;4850290;29;20029;-73
2022/12/10 18:16:34;;;;;;;31.58;16.27;;;1.00;99.90;;;;;;4850616;29;20523;-73
2022/12/10 18:19:02;;;;;;;31.02;17.08;;;0.90;99.90;;;;;;4850237;29;20223;-72
2022/12/10 18:21:28;;;;;;;31.27;16.98;;;0.90;99.90;;;;;;4850566;29;20049;-73
2022/12/10 18:23:54;;;;;;;29.90;16.33;;;0.90;99.90;;;;;;4849971;29;20041;-73
2022/12/10 18:26:23;;;;;;;30.52;16.45;;;0.90;99.90;;;;;;4850412;29;20033;-72
2022/12/10 18:29:00;;;;;;;31.30;16.02;;;0.90;99.90;;;;;;4850259;29;20048;-71
2022/12/10 18:31:28;;;;;;;28.30;14.95;;;0.90;99.90;;;;;;4850426;29;20078;-72
2022/12/10 18:33:58;;;;;;;28.00;15.70;;;0.90;99.90;;;;;;4834070;29;20240;-73
2022/12/10 18:36:27;;;;;;;31.23;17.25;;;1.00;99.90;;;;;;4834439;29;20058;-73
2022/12/10 18:38:54;;;;;;;33.60;16.85;;;1.00;99.90;;;;;;4851052;29;20279;-72
2022/12/10 18:41:20;;;;;;;31.13;16.67;;;1.00;99.90;;;;;;4849951;29;20030;-75
2022/12/10 18:43:46;;;;;;;29.15;16.02;;;1.00;99.90;;;;;;4850297;29;20049;-75
2022/12/10 18:46:14;;;;;;;30.98;17.10;;;1.00;99.90;;;;;;4850141;29;20057;-73
2022/12/10 18:48:41;;;;;;;32.97;16.98;;;1.00;99.90;;;;;;4850508;29;20055;-72
2022/12/10 18:51:06;;;;;;;29.88;16.15;;;0.90;99.90;;;;;;4849332;29;20327;-74
2022/12/10 18:53:33;;;;;;;30.08;15.50;;;0.90;99.90;;;;;;4850134;29;20053;-73
2022/12/10 18:55:58;;;;;;;30.17;16.75;;;0.90;99.90;;;;;;4832812;29;20046;-73
2022/12/10 18:58:24;;;;;;;31.45;16.38;;;0.90;99.90;;;;;;4848343;29;20109;-73
2022/12/10 19:00:50;;;;;;;29.45;16.15;;;0.90;99.90;;;;;;4849914;29;20030;-71
2022/12/10 19:03:16;;;;;;;31.15;17.35;;;0.90;99.90;;;;;;4863684;29;20077;-72